sensor_id;sensor_type;location;lat;lon;timestamp;pressure;altitude;pressure_sealevel;temperature
15360;BMP280;7779;49.596;11.070;2023-02-28T00:01:22;99262.28;;;1.88
15360;BMP280;7779;49.596;11.070;2023-02-28T00:03:48;99258.78;;;1.86
15360;BMP280;7779;49.596;11.070;2023-02-28T00:06:14;99259.50;;;1.85
15360;BMP280;7779;49.596;11.070;2023-02-28T00:08:40;99258.63;;;1.84
15360;BMP280;7779;49.596;11.070;2023-02-28T00:11:10;99254.53;;;1.85
15360;BMP280;7779;49.596;11.070;2023-02-28T00:13:40;99254.53;;;1.85
15360;BMP280;7779;49.596;11.070;2023-02-28T00:16:11;99254.53;;;1.85
15360;BMP280;7779;49.596;11.070;2023-02-28T00:18:38;99248.75;;;1.84
15360;BMP280;7779;49.596;11.070;2023-02-28T00:21:05;99252.06;;;1.85
15360;BMP280;7779;49.596;11.070;2023-02-28T00:23:32;99248.91;;;1.86
15360;BMP280;7779;49.596;11.070;2023-02-28T00:25:58;99251.38;;;1.86
15360;BMP280;7779;49.596;11.070;2023-02-28T00:28:24;99249.59;;;1.85
15360;BMP280;7779;49.596;11.070;2023-02-28T00:30:50;99248.00;;;1.85
15360;BMP280;7779;49.596;11.070;2023-02-28T00:33:16;99248.91;;;1.86
15360;BMP280;7779;49.596;11.070;2023-02-28T00:35:42;99253.84;;;1.86
15360;BMP280;7779;49.596;11.070;2023-02-28T00:38:08;99250.63;;;1.87
15360;BMP280;7779;49.596;11.070;2023-02-28T00:40:34;99253.09;;;1.87
15360;BMP280;7779;49.596;11.070;2023-02-28T00:43:00;99246.44;;;1.86
15360;BMP280;7779;49.596;11.070;2023-02-28T00:45:25;99251.38;;;1.86
15360;BMP280;7779;49.596;11.070;2023-02-28T00:47:51;99246.44;;;1.86
15360;BMP280;7779;49.596;11.070;2023-02-28T00:50:19;99248.91;;;1.86
15360;BMP280;7779;49.596;11.070;2023-02-28T00:52:46;99249.59;;;1.85
15360;BMP280;7779;49.596;11.070;2023-02-28T00:55:13;99248.91;;;1.86
15360;BMP280;7779;49.596;11.070;2023-02-28T00:57:39;99245.53;;;1.85
15360;BMP280;7779;49.596;11.070;2023-02-28T01:00:07;99246.44;;;1.86
15360;BMP280;7779;49.596;11.070;2023-02-28T01:02:33;99243.97;;;1.86
15360;BMP280;7779;49.596;11.070;2023-02-28T01:04:59;99244.13;;;1.87
15360;BMP280;7779;49.596;11.070;2023-02-28T01:07:24;99240.03;;;1.88
15360;BMP280;7779;49.596;11.070;2023-02-28T01:09:50;99240.75;;;1.87
15360;BMP280;7779;49.596;11.070;2023-02-28T01:12:16;99237.41;;;1.86
15360;BMP280;7779;49.596;11.070;2023-02-28T01:14:42;99236.53;;;1.86
15360;BMP280;7779;49.596;11.070;2023-02-28T01:17:08;99236.53;;;1.86
15360;BMP280;7779;49.596;11.070;2023-02-28T01:19:35;99236.53;;;1.86
15360;BMP280;7779;49.596;11.070;2023-02-28T01:22:04;99235.66;;;1.85
15360;BMP280;7779;49.596;11.070;2023-02-28T01:24:31;99233.06;;;1.84
15360;BMP280;7779;49.596;11.070;2023-02-28T01:26:56;99229.50;;;1.82
15360;BMP280;7779;49.596;11.070;2023-02-28T01:29:22;99233.59;;;1.81
15360;BMP280;7779;49.596;11.070;2023-02-28T01:31:48;99229.38;;;1.80
15360;BMP280;7779;49.596;11.070;2023-02-28T01:34:13;99233.44;;;1.80
15360;BMP280;7779;49.596;11.070;2023-02-28T01:36:39;99231.69;;;1.79
15360;BMP280;7779;49.596;11.070;2023-02-28T01:39:05;99219.03;;;1.76
15360;BMP280;7779;49.596;11.070;2023-02-28T01:41:34;99227.28;;;1.76
15360;BMP280;7779;49.596;11.070;2023-02-28T01:44:53;99233.84;;;1.76
15360;BMP280;7779;49.596;11.070;2023-02-28T01:46:52;99224.53;;;1.73
15360;BMP280;7779;49.596;11.070;2023-02-28T01:49:18;99226.84;;;1.72
15360;BMP280;7779;49.596;11.070;2023-02-28T01:51:54;99221.03;;;1.71
15360;BMP280;7779;49.596;11.070;2023-02-28T01:54:29;99221.75;;;1.70
15360;BMP280;7779;49.596;11.070;2023-02-28T01:57:09;99221.75;;;1.70
15360;BMP280;7779;49.596;11.070;2023-02-28T01:59:42;99214.91;;;1.68
15360;BMP280;7779;49.596;11.070;2023-02-28T02:02:17;99214.91;;;1.68
15360;BMP280;7779;49.596;11.070;2023-02-28T02:07:32;99213.13;;;1.67
15360;BMP280;7779;49.596;11.070;2023-02-28T02:16:20;99208.59;;;1.63
15360;BMP280;7779;49.596;11.070;2023-02-28T02:18:55;99207.00;;;1.63
15360;BMP280;7779;49.596;11.070;2023-02-28T02:25:01;99204.41;;;1.62
15360;BMP280;7779;49.596;11.070;2023-02-28T02:27:54;99195.94;;;1.60
15360;BMP280;7779;49.596;11.070;2023-02-28T02:34:13;99192.44;;;1.58
15360;BMP280;7779;49.596;11.070;2023-02-28T02:37:22;99191.41;;;1.56
15360;BMP280;7779;49.596;11.070;2023-02-28T02:40:02;99193.88;;;1.56
15360;BMP280;7779;49.596;11.070;2023-02-28T02:43:17;99197.38;;;1.58
15360;BMP280;7779;49.596;11.070;2023-02-28T02:45:59;99190.72;;;1.57
15360;BMP280;7779;49.596;11.070;2023-02-28T02:48:32;99200.75;;;1.58
15360;BMP280;7779;49.596;11.070;2023-02-28T02:51:04;99200.88;;;1.60
15360;BMP280;7779;49.596;11.070;2023-02-28T02:53:47;99192.75;;;1.61
15360;BMP280;7779;49.596;11.070;2023-02-28T02:56:18;99191.16;;;1.61
15360;BMP280;7779;49.596;11.070;2023-02-28T02:58:49;99204.41;;;1.62
15360;BMP280;7779;49.596;11.070;2023-02-28T03:01:21;99187.81;;;1.61
15360;BMP280;7779;49.596;11.070;2023-02-28T03:04:10;99195.41;;;1.62
15360;BMP280;7779;49.596;11.070;2023-02-28T03:06:38;99194.53;;;1.62
15360;BMP280;7779;49.596;11.070;2023-02-28T03:09:04;99198.41;;;1.60
15360;BMP280;7779;49.596;11.070;2023-02-28T03:11:30;99201.03;;;1.61
15360;BMP280;7779;49.596;11.070;2023-02-28T03:17:47;99197.69;;;1.61
15360;BMP280;7779;49.596;11.070;2023-02-28T03:23:47;99203.91;;;1.57
15360;BMP280;7779;49.596;11.070;2023-02-28T03:26:23;99206.38;;;1.57
15360;BMP280;7779;49.596;11.070;2023-02-28T03:29:03;99202.31;;;1.58
15360;BMP280;7779;49.596;11.070;2023-02-28T03:31:39;99204.09;;;1.59
15360;BMP280;7779;49.596;11.070;2023-02-28T03:34:15;99209.88;;;1.59
15360;BMP280;7779;49.596;11.070;2023-02-28T03:36:55;99209.88;;;1.59
15360;BMP280;7779;49.596;11.070;2023-02-28T03:39:35;99211.66;;;1.60
15360;BMP280;7779;49.596;11.070;2023-02-28T03:42:09;99211.66;;;1.60
15360;BMP280;7779;49.596;11.070;2023-02-28T03:44:57;99209.34;;;1.62
15360;BMP280;7779;49.596;11.070;2023-02-28T03:47:32;99211.66;;;1.60
15360;BMP280;7779;49.596;11.070;2023-02-28T03:50:11;99203.34;;;1.60
15360;BMP280;7779;49.596;11.070;2023-02-28T03:52:45;99214.81;;;1.59
15360;BMP280;7779;49.596;11.070;2023-02-28T03:55:14;99217.13;;;1.58
15360;BMP280;7779;49.596;11.070;2023-02-28T03:58:00;99213.81;;;1.57
15360;BMP280;7779;49.596;11.070;2023-02-28T04:00:36;99209.44;;;1.55
15360;BMP280;7779;49.596;11.070;2023-02-28T04:03:04;99199.38;;;1.54
15360;BMP280;7779;49.596;11.070;2023-02-28T04:05:31;99204.31;;;1.54
15360;BMP280;7779;49.596;11.070;2023-02-28T04:08:07;99210.88;;;1.53
15360;BMP280;7779;49.596;11.070;2023-02-28T04:10:33;99211.56;;;1.52
15360;BMP280;7779;49.596;11.070;2023-02-28T04:12:59;99205.59;;;1.50
15360;BMP280;7779;49.596;11.070;2023-02-28T04:15:25;99211.25;;;1.49
15360;BMP280;7779;49.596;11.070;2023-02-28T04:17:53;99217.22;;;1.51
15360;BMP280;7779;49.596;11.070;2023-02-28T04:20:18;99203.84;;;1.49
15360;BMP280;7779;49.596;11.070;2023-02-28T04:22:44;99202.97;;;1.49
15360;BMP280;7779;49.596;11.070;2023-02-28T04:25:10;99204.41;;;1.47
15360;BMP280;7779;49.596;11.070;2023-02-28T04:27:35;99210.97;;;1.46
15360;BMP280;7779;49.596;11.070;2023-02-28T04:30:02;99215.88;;;1.46
15360;BMP280;7779;49.596;11.070;2023-02-28T04:32:28;99213.44;;;1.46
15360;BMP280;7779;49.596;11.070;2023-02-28T04:34:53;99208.47;;;1.46
15360;BMP280;7779;49.596;11.070;2023-02-28T04:37:19;99215.16;;;1.47
15360;BMP280;7779;49.596;11.070;2023-02-28T04:39:45;99208.78;;;1.49
15360;BMP280;7779;49.596;11.070;2023-02-28T04:42:11;99201.38;;;1.49
15360;BMP280;7779;49.596;11.070;2023-02-28T04:44:37;99208.94;;;1.51
15360;BMP280;7779;49.596;11.070;2023-02-28T04:47:02;99211.56;;;1.52
15360;BMP280;7779;49.596;11.070;2023-02-28T04:49:28;99205.94;;;1.53
15360;BMP280;7779;49.596;11.070;2023-02-28T04:51:54;99210.13;;;1.54
15360;BMP280;7779;49.596;11.070;2023-02-28T04:54:20;99205.03;;;1.53
15360;BMP280;7779;49.596;11.070;2023-02-28T04:56:45;99205.19;;;1.54
15360;BMP280;7779;49.596;11.070;2023-02-28T04:59:11;99211.00;;;1.54
15360;BMP280;7779;49.596;11.070;2023-02-28T05:01:37;99213.63;;;1.56
15360;BMP280;7779;49.596;11.070;2023-02-28T05:04:04;99208.84;;;1.57
15360;BMP280;7779;49.596;11.070;2023-02-28T05:06:32;99209.72;;;1.58
15360;BMP280;7779;49.596;11.070;2023-02-28T05:08:58;99213.97;;;1.59
15360;BMP280;7779;49.596;11.070;2023-02-28T05:11:34;99214.28;;;1.62
15360;BMP280;7779;49.596;11.070;2023-02-28T05:14:02;99220.25;;;1.64
15360;BMP280;7779;49.596;11.070;2023-02-28T05:16:28;99211.81;;;1.62
15360;BMP280;7779;49.596;11.070;2023-02-28T05:18:54;99216.19;;;1.64
15360;BMP280;7779;49.596;11.070;2023-02-28T05:23:51;99207.34;;;1.66
15360;BMP280;7779;49.596;11.070;2023-02-28T05:26:16;99214.91;;;1.68
15360;BMP280;7779;49.596;11.070;2023-02-28T05:28:42;99216.50;;;1.67
15360;BMP280;7779;49.596;11.070;2023-02-28T05:31:10;99221.56;;;1.69
15360;BMP280;7779;49.596;11.070;2023-02-28T05:33:36;99214.91;;;1.68
15360;BMP280;7779;49.596;11.070;2023-02-28T05:36:03;99225.66;;;1.68
15360;BMP280;7779;49.596;11.070;2023-02-28T05:38:29;99216.63;;;1.69
15360;BMP280;7779;49.596;11.070;2023-02-28T05:40:54;99215.94;;;1.70
15360;BMP280;7779;49.596;11.070;2023-02-28T05:43:20;99223.34;;;1.70
15360;BMP280;7779;49.596;11.070;2023-02-28T05:45:46;99224.03;;;1.69
15360;BMP280;7779;49.596;11.070;2023-02-28T05:48:11;99228.97;;;1.69
15360;BMP280;7779;49.596;11.070;2023-02-28T05:50:37;99222.31;;;1.68
15360;BMP280;7779;49.596;11.070;2023-02-28T05:53:03;99228.84;;;1.67
15360;BMP280;7779;49.596;11.070;2023-02-28T05:55:29;99228.84;;;1.67
15360;BMP280;7779;49.596;11.070;2023-02-28T05:57:55;99231.16;;;1.66
15360;BMP280;7779;49.596;11.070;2023-02-28T06:00:22;99231.16;;;1.66
15360;BMP280;7779;49.596;11.070;2023-02-28T06:02:47;99228.53;;;1.64
15360;BMP280;7779;49.596;11.070;2023-02-28T06:05:17;99235.22;;;1.65
15360;BMP280;7779;49.596;11.070;2023-02-28T06:07:43;99240.00;;;1.64
15360;BMP280;7779;49.596;11.070;2023-02-28T06:10:11;99244.22;;;1.65
15360;BMP280;7779;49.596;11.070;2023-02-28T06:12:38;99240.88;;;1.64
15360;BMP280;7779;49.596;11.070;2023-02-28T06:15:04;99249.16;;;1.65
15360;BMP280;7779;49.596;11.070;2023-02-28T06:17:30;99244.22;;;1.65
15360;BMP280;7779;49.596;11.070;2023-02-28T06:19:55;99248.47;;;1.66
15360;BMP280;7779;49.596;11.070;2023-02-28T06:22:21;99240.16;;;1.65
15360;BMP280;7779;49.596;11.070;2023-02-28T06:24:47;99236.09;;;1.66
15360;BMP280;7779;49.596;11.070;2023-02-28T06:27:13;99237.84;;;1.67
15360;BMP280;7779;49.596;11.070;2023-02-28T06:29:38;99246.84;;;1.66
15360;BMP280;7779;49.596;11.070;2023-02-28T06:32:07;99250.19;;;1.67
15360;BMP280;7779;49.596;11.070;2023-02-28T06:34:32;99241.34;;;1.69
15360;BMP280;7779;49.596;11.070;2023-02-28T06:36:59;99244.84;;;1.71
15360;BMP280;7779;49.596;11.070;2023-02-28T06:39:29;99258.25;;;1.73
15360;BMP280;7779;49.596;11.070;2023-02-28T06:41:55;99246.19;;;1.76
15360;BMP280;7779;49.596;11.070;2023-02-28T06:44:22;99253.19;;;1.80
15360;BMP280;7779;49.596;11.070;2023-02-28T06:46:49;99248.91;;;1.86
15360;BMP280;7779;49.596;11.070;2023-02-28T06:49:15;99255.16;;;1.91
15360;BMP280;7779;49.596;11.070;2023-02-28T06:51:44;99257.53;;;1.97
15360;BMP280;7779;49.596;11.070;2023-02-28T06:54:13;99258.91;;;2.02
15360;BMP280;7779;49.596;11.070;2023-02-28T06:56:39;99263.75;;;2.09
15360;BMP280;7779;49.596;11.070;2023-02-28T06:59:05;99254.47;;;2.15
15360;BMP280;7779;49.596;11.070;2023-02-28T07:01:31;99255.97;;;2.22
15360;BMP280;7779;49.596;11.070;2023-02-28T07:03:58;99260.81;;;2.29
15360;BMP280;7779;49.596;11.070;2023-02-28T07:06:26;99263.16;;;2.35
15360;BMP280;7779;49.596;11.070;2023-02-28T07:08:53;99262.19;;;2.42
15360;BMP280;7779;49.596;11.070;2023-02-28T07:11:22;99262.25;;;2.50
15360;BMP280;7779;49.596;11.070;2023-02-28T07:13:49;99262.00;;;2.56
15360;BMP280;7779;49.596;11.070;2023-02-28T07:16:16;99264.31;;;2.63
15360;BMP280;7779;49.596;11.070;2023-02-28T07:18:41;99265.81;;;2.69
15360;BMP280;7779;49.596;11.070;2023-02-28T07:21:09;99269.81;;;2.75
15360;BMP280;7779;49.596;11.070;2023-02-28T07:23:38;99266.31;;;2.82
15360;BMP280;7779;49.596;11.070;2023-02-28T07:26:05;99271.16;;;2.89
15360;BMP280;7779;49.596;11.070;2023-02-28T07:28:32;99271.75;;;2.95
15360;BMP280;7779;49.596;11.070;2023-02-28T07:31:04;99267.53;;;3.02
15360;BMP280;7779;49.596;11.070;2023-02-28T07:33:30;99274.69;;;3.08
15360;BMP280;7779;49.596;11.070;2023-02-28T07:36:06;99272.09;;;3.14
15360;BMP280;7779;49.596;11.070;2023-02-28T07:38:37;99273.59;;;3.21
15360;BMP280;7779;49.596;11.070;2023-02-28T07:41:04;99270.84;;;3.26
15360;BMP280;7779;49.596;11.070;2023-02-28T07:43:31;99273.88;;;3.32
15360;BMP280;7779;49.596;11.070;2023-02-28T07:46:13;99265.47;;;3.39
15360;BMP280;7779;49.596;11.070;2023-02-28T07:48:40;99266.75;;;3.44
15360;BMP280;7779;49.596;11.070;2023-02-28T07:51:06;99267.53;;;3.51
15360;BMP280;7779;49.596;11.070;2023-02-28T07:53:32;99272.47;;;3.59
15360;BMP280;7779;49.596;11.070;2023-02-28T07:56:01;99270.88;;;3.68
15360;BMP280;7779;49.596;11.070;2023-02-28T07:58:29;99274.09;;;3.76
15360;BMP280;7779;49.596;11.070;2023-02-28T08:00:56;99274.81;;;3.83
15360;BMP280;7779;49.596;11.070;2023-02-28T08:03:23;99264.03;;;3.91
15360;BMP280;7779;49.596;11.070;2023-02-28T08:05:49;99270.88;;;4.02
15360;BMP280;7779;49.596;11.070;2023-02-28T08:08:16;99273.38;;;4.10
15360;BMP280;7779;49.596;11.070;2023-02-28T08:10:43;99273.19;;;4.17
15360;BMP280;7779;49.596;11.070;2023-02-28T08:13:09;99270.72;;;4.26
15360;BMP280;7779;49.596;11.070;2023-02-28T08:15:34;99276.53;;;4.34
15360;BMP280;7779;49.596;11.070;2023-02-28T08:18:00;99274.91;;;4.43
15360;BMP280;7779;49.596;11.070;2023-02-28T08:20:26;99269.19;;;4.53
15360;BMP280;7779;49.596;11.070;2023-02-28T08:22:52;99264.22;;;4.61
15360;BMP280;7779;49.596;11.070;2023-02-28T08:25:18;99259.09;;;4.68
15360;BMP280;7779;49.596;11.070;2023-02-28T08:27:44;99258.88;;;4.75
15360;BMP280;7779;49.596;11.070;2023-02-28T08:30:13;99256.13;;;4.80
15360;BMP280;7779;49.596;11.070;2023-02-28T08:32:39;99254.03;;;4.85
15360;BMP280;7779;49.596;11.070;2023-02-28T08:35:06;99254.59;;;4.91
15360;BMP280;7779;49.596;11.070;2023-02-28T08:37:32;99249.44;;;4.98
15360;BMP280;7779;49.596;11.070;2023-02-28T08:39:58;99262.41;;;5.03
15360;BMP280;7779;49.596;11.070;2023-02-28T08:42:24;99245.47;;;5.08
15360;BMP280;7779;49.596;11.070;2023-02-28T08:44:50;99254.06;;;5.11
15360;BMP280;7779;49.596;11.070;2023-02-28T08:47:16;99257.09;;;5.17
15360;BMP280;7779;49.596;11.070;2023-02-28T08:49:42;99255.16;;;5.23
15360;BMP280;7779;49.596;11.070;2023-02-28T08:52:07;99258.06;;;5.28
15360;BMP280;7779;49.596;11.070;2023-02-28T08:54:33;99269.41;;;5.34
15360;BMP280;7779;49.596;11.070;2023-02-28T08:57:00;99261.50;;;5.38
15360;BMP280;7779;49.596;11.070;2023-02-28T08:59:26;99275.66;;;5.39
15360;BMP280;7779;49.596;11.070;2023-02-28T09:01:51;99255.78;;;5.39
15360;BMP280;7779;49.596;11.070;2023-02-28T09:04:17;99245.84;;;5.39
15360;BMP280;7779;49.596;11.070;2023-02-28T09:06:43;99260.28;;;5.43
15360;BMP280;7779;49.596;11.070;2023-02-28T09:09:10;99251.50;;;5.46
15360;BMP280;7779;49.596;11.070;2023-02-28T09:11:36;99247.09;;;5.52
15360;BMP280;7779;49.596;11.070;2023-02-28T09:14:03;99251.13;;;5.60
15360;BMP280;7779;49.596;11.070;2023-02-28T09:16:31;99249.31;;;5.68
15360;BMP280;7779;49.596;11.070;2023-02-28T09:18:57;99255.41;;;5.71
15360;BMP280;7779;49.596;11.070;2023-02-28T09:21:23;99244.91;;;5.74
15360;BMP280;7779;49.596;11.070;2023-02-28T09:23:49;99246.03;;;5.77
15360;BMP280;7779;49.596;11.070;2023-02-28T09:26:26;99246.47;;;5.82
15360;BMP280;7779;49.596;11.070;2023-02-28T09:28:52;99248.31;;;5.84
15360;BMP280;7779;49.596;11.070;2023-02-28T09:31:23;99246.25;;;5.88
15360;BMP280;7779;49.596;11.070;2023-02-28T09:33:52;99247.41;;;5.92
15360;BMP280;7779;49.596;11.070;2023-02-28T09:36:19;99241.19;;;5.97
15360;BMP280;7779;49.596;11.070;2023-02-28T09:38:45;99249.94;;;6.02
15360;BMP280;7779;49.596;11.070;2023-02-28T09:41:23;99247.81;;;6.06
15360;BMP280;7779;49.596;11.070;2023-02-28T09:43:55;99244.88;;;6.10
15360;BMP280;7779;49.596;11.070;2023-02-28T09:46:45;99250.38;;;6.16
15360;BMP280;7779;49.596;11.070;2023-02-28T09:49:16;99258.38;;;6.22
15360;BMP280;7779;49.596;11.070;2023-02-28T09:54:19;99247.00;;;6.34
15360;BMP280;7779;49.596;11.070;2023-02-28T09:57:13;99246.63;;;6.39
15360;BMP280;7779;49.596;11.070;2023-02-28T10:00:16;99249.16;;;6.49
15360;BMP280;7779;49.596;11.070;2023-02-28T10:05:31;99248.84;;;6.64
15360;BMP280;7779;49.596;11.070;2023-02-28T10:08:28;99253.84;;;6.74
15360;BMP280;7779;49.596;11.070;2023-02-28T10:11:06;99255.38;;;6.82
15360;BMP280;7779;49.596;11.070;2023-02-28T10:19:03;99244.47;;;7.10
15360;BMP280;7779;49.596;11.070;2023-02-28T10:21:55;99249.06;;;7.15
15360;BMP280;7779;49.596;11.070;2023-02-28T10:24:42;99253.44;;;7.18
15360;BMP280;7779;49.596;11.070;2023-02-28T10:27:18;99237.00;;;7.20
15360;BMP280;7779;49.596;11.070;2023-02-28T10:29:51;99237.09;;;7.21
15360;BMP280;7779;49.596;11.070;2023-02-28T10:32:21;99235.28;;;7.29
15360;BMP280;7779;49.596;11.070;2023-02-28T10:34:57;99232.28;;;7.33
15360;BMP280;7779;49.596;11.070;2023-02-28T10:37:24;99225.03;;;7.36
15360;BMP280;7779;49.596;11.070;2023-02-28T10:39:50;99229.53;;;7.39
15360;BMP280;7779;49.596;11.070;2023-02-28T10:42:29;99235.63;;;7.43
15360;BMP280;7779;49.596;11.070;2023-02-28T10:45:17;99225.31;;;7.48
15360;BMP280;7779;49.596;11.070;2023-02-28T10:47:56;99220.53;;;7.51
15360;BMP280;7779;49.596;11.070;2023-02-28T10:56:05;99207.09;;;7.59
15360;BMP280;7779;49.596;11.070;2023-02-28T10:58:55;99220.66;;;7.63
15360;BMP280;7779;49.596;11.070;2023-02-28T11:01:45;99216.03;;;7.67
15360;BMP280;7779;49.596;11.070;2023-02-28T11:07:18;99227.50;;;7.75
15360;BMP280;7779;49.596;11.070;2023-02-28T11:09:56;99216.00;;;7.77
15360;BMP280;7779;49.596;11.070;2023-02-28T11:12:38;99212.41;;;7.83
15360;BMP280;7779;49.596;11.070;2023-02-28T11:15:23;99209.38;;;7.87
15360;BMP280;7779;49.596;11.070;2023-02-28T11:17:58;99210.50;;;7.91
15360;BMP280;7779;49.596;11.070;2023-02-28T11:20:27;99201.38;;;7.91
15360;BMP280;7779;49.596;11.070;2023-02-28T11:22:56;99205.78;;;7.94
15360;BMP280;7779;49.596;11.070;2023-02-28T11:25:25;99214.50;;;7.99
15360;BMP280;7779;49.596;11.070;2023-02-28T11:28:32;99216.47;;;8.03
15360;BMP280;7779;49.596;11.070;2023-02-28T11:33:50;99208.59;;;8.08
15360;BMP280;7779;49.596;11.070;2023-02-28T11:36:30;99211.59;;;8.14
15360;BMP280;7779;49.596;11.070;2023-02-28T11:39:03;99201.88;;;8.17
15360;BMP280;7779;49.596;11.070;2023-02-28T11:42:07;99206.47;;;8.22
15360;BMP280;7779;49.596;11.070;2023-02-28T11:48:05;99190.84;;;8.25
15360;BMP280;7779;49.596;11.070;2023-02-28T11:50:55;99197.59;;;8.26
15360;BMP280;7779;49.596;11.070;2023-02-28T11:56:31;99202.59;;;8.26
15360;BMP280;7779;49.596;11.070;2023-02-28T11:59:35;99197.81;;;8.29
15360;BMP280;7779;49.596;11.070;2023-02-28T12:02:24;99197.94;;;8.30
15360;BMP280;7779;49.596;11.070;2023-02-28T12:05:13;99193.94;;;8.32
15360;BMP280;7779;49.596;11.070;2023-02-28T12:07:59;99196.53;;;8.34
15360;BMP280;7779;49.596;11.070;2023-02-28T12:13:58;99197.91;;;8.40
15360;BMP280;7779;49.596;11.070;2023-02-28T12:19:58;99193.13;;;8.43
15360;BMP280;7779;49.596;11.070;2023-02-28T12:22:37;99189.88;;;8.44
15360;BMP280;7779;49.596;11.070;2023-02-28T12:25:38;99184.25;;;8.47
15360;BMP280;7779;49.596;11.070;2023-02-28T12:28:16;99172.75;;;8.49
15360;BMP280;7779;49.596;11.070;2023-02-28T12:31:29;99185.59;;;8.53
15360;BMP280;7779;49.596;11.070;2023-02-28T12:34:03;99172.34;;;8.54
15360;BMP280;7779;49.596;11.070;2023-02-28T12:36:30;99168.13;;;8.53
15360;BMP280;7779;49.596;11.070;2023-02-28T12:39:11;99170.81;;;8.56
15360;BMP280;7779;49.596;11.070;2023-02-28T12:41:46;99166.06;;;8.59
15360;BMP280;7779;49.596;11.070;2023-02-28T12:44:31;99169.81;;;8.64
15360;BMP280;7779;49.596;11.070;2023-02-28T12:47:03;99161.78;;;8.68
15360;BMP280;7779;49.596;11.070;2023-02-28T12:49:54;99166.25;;;8.72
15360;BMP280;7779;49.596;11.070;2023-02-28T12:52:42;99162.88;;;8.71
15360;BMP280;7779;49.596;11.070;2023-02-28T12:58:42;99171.22;;;8.72
15360;BMP280;7779;49.596;11.070;2023-02-28T13:04:26;99167.00;;;8.71
15360;BMP280;7779;49.596;11.070;2023-02-28T13:10:16;99157.50;;;8.67
15360;BMP280;7779;49.596;11.070;2023-02-28T13:12:53;99160.25;;;8.70
15360;BMP280;7779;49.596;11.070;2023-02-28T13:15:27;99162.00;;;8.71
15360;BMP280;7779;49.596;11.070;2023-02-28T13:17:57;99160.59;;;8.74
15360;BMP280;7779;49.596;11.070;2023-02-28T13:20:36;99162.47;;;8.77
15360;BMP280;7779;49.596;11.070;2023-02-28T13:23:03;99158.22;;;8.76
15360;BMP280;7779;49.596;11.070;2023-02-28T13:28:01;99150.72;;;8.76
15360;BMP280;7779;49.596;11.070;2023-02-28T13:38:51;99150.53;;;8.84
15360;BMP280;7779;49.596;11.070;2023-02-28T13:44:18;99141.94;;;8.81
15360;BMP280;7779;49.596;11.070;2023-02-28T13:47:20;99162.91;;;8.83
15360;BMP280;7779;49.596;11.070;2023-02-28T13:49:47;99160.41;;;8.83
15360;BMP280;7779;49.596;11.070;2023-02-28T13:52:23;99142.31;;;8.85
15360;BMP280;7779;49.596;11.070;2023-02-28T13:55:28;99145.13;;;8.90
15360;BMP280;7779;49.596;11.070;2023-02-28T14:06:59;99142.97;;;8.94
15360;BMP280;7779;49.596;11.070;2023-02-28T14:09:33;99137.34;;;8.96
15360;BMP280;7779;49.596;11.070;2023-02-28T14:18:34;99135.81;;;8.98
15360;BMP280;7779;49.596;11.070;2023-02-28T14:24:16;99145.81;;;8.98
15360;BMP280;7779;49.596;11.070;2023-02-28T14:33:01;99137.34;;;8.96
15360;BMP280;7779;49.596;11.070;2023-02-28T14:38:25;99145.47;;;8.94
15360;BMP280;7779;49.596;11.070;2023-02-28T14:40:57;99131.97;;;8.92
15360;BMP280;7779;49.596;11.070;2023-02-28T14:43:28;99130.38;;;8.93
15360;BMP280;7779;49.596;11.070;2023-02-28T14:45:58;99130.38;;;8.93
15360;BMP280;7779;49.596;11.070;2023-02-28T14:48:25;99126.91;;;8.91
15360;BMP280;7779;49.596;11.070;2023-02-28T14:50:56;99134.41;;;8.91
15360;BMP280;7779;49.596;11.070;2023-02-28T14:53:26;99130.13;;;8.90
15360;BMP280;7779;49.596;11.070;2023-02-28T14:55:53;99140.13;;;8.90
15360;BMP280;7779;49.596;11.070;2023-02-28T14:58:28;99123.38;;;8.89
15360;BMP280;7779;49.596;11.070;2023-02-28T15:00:58;99126.66;;;8.88
15360;BMP280;7779;49.596;11.070;2023-02-28T15:03:36;99130.78;;;8.87
15360;BMP280;7779;49.596;11.070;2023-02-28T15:06:17;99129.91;;;8.87
15360;BMP280;7779;49.596;11.070;2023-02-28T15:08:44;99122.94;;;8.83
15360;BMP280;7779;49.596;11.070;2023-02-28T15:11:17;99124.56;;;8.82
15360;BMP280;7779;49.596;11.070;2023-02-28T15:13:53;99124.47;;;8.81
15360;BMP280;7779;49.596;11.070;2023-02-28T15:16:32;99128.59;;;8.80
15360;BMP280;7779;49.596;11.070;2023-02-28T15:19:37;99125.84;;;8.77
15360;BMP280;7779;49.596;11.070;2023-02-28T15:22:13;99132.25;;;8.74
15360;BMP280;7779;49.596;11.070;2023-02-28T15:24:46;99124.41;;;8.69
15360;BMP280;7779;49.596;11.070;2023-02-28T15:27:27;99121.81;;;8.68
15360;BMP280;7779;49.596;11.070;2023-02-28T15:29:58;99125.03;;;8.67
15360;BMP280;7779;49.596;11.070;2023-02-28T15:32:37;99128.94;;;8.63
15360;BMP280;7779;49.596;11.070;2023-02-28T15:35:29;99124.59;;;8.61
15360;BMP280;7779;49.596;11.070;2023-02-28T15:38:00;99131.09;;;8.59
15360;BMP280;7779;49.596;11.070;2023-02-28T15:40:32;99137.63;;;8.57
15360;BMP280;7779;49.596;11.070;2023-02-28T15:45:39;99139.75;;;8.53
15360;BMP280;7779;49.596;11.070;2023-02-28T15:48:27;99137.78;;;8.49
15360;BMP280;7779;49.596;11.070;2023-02-28T15:53:40;99142.31;;;8.43
15360;BMP280;7779;49.596;11.070;2023-02-28T15:56:24;99139.69;;;8.41
15360;BMP280;7779;49.596;11.070;2023-02-28T15:58:58;99136.88;;;8.37
15360;BMP280;7779;49.596;11.070;2023-02-28T16:01:31;99141.63;;;8.34
15360;BMP280;7779;49.596;11.070;2023-02-28T16:07:03;99135.28;;;8.27
15360;BMP280;7779;49.596;11.070;2023-02-28T16:09:29;99143.28;;;8.23
15360;BMP280;7779;49.596;11.070;2023-02-28T16:12:00;99141.31;;;8.19
15360;BMP280;7779;49.596;11.070;2023-02-28T16:14:30;99138.47;;;8.15
15360;BMP280;7779;49.596;11.070;2023-02-28T16:17:06;99138.22;;;8.12
15360;BMP280;7779;49.596;11.070;2023-02-28T16:19:34;99138.59;;;8.07
15360;BMP280;7779;49.596;11.070;2023-02-28T16:22:00;99144.84;;;8.02
15360;BMP280;7779;49.596;11.070;2023-02-28T16:24:26;99142.00;;;7.97
15360;BMP280;7779;49.596;11.070;2023-02-28T16:26:55;99137.41;;;7.92
15360;BMP280;7779;49.596;11.070;2023-02-28T16:29:35;99144.53;;;7.87
15360;BMP280;7779;49.596;11.070;2023-02-28T16:32:05;99149.91;;;7.82
15360;BMP280;7779;49.596;11.070;2023-02-28T16:34:31;99153.66;;;7.77
15360;BMP280;7779;49.596;11.070;2023-02-28T16:36:57;99153.94;;;7.70
15360;BMP280;7779;49.596;11.070;2023-02-28T16:39:23;99155.19;;;7.65
15360;BMP280;7779;49.596;11.070;2023-02-28T16:41:51;99161.44;;;7.60
15360;BMP280;7779;49.596;11.070;2023-02-28T16:44:33;99162.69;;;7.55
15360;BMP280;7779;49.596;11.070;2023-02-28T16:47:01;99167.81;;;7.47
15360;BMP280;7779;49.596;11.070;2023-02-28T16:49:28;99163.22;;;7.41